Time;durP1;ratioP1;P1;durP2;ratioP2;P2;SDS_P1;SDS_P2;PMS_P1;PMS_P2;Temp;Humidity;BMP_temperature;BMP_pressure;BME280_temperature;BME280_humidity;BME280_pressure;Samples;Min_cycle;Max_cycle;Signal;HPM_P1;HPM_P2
2023/08/05 00:00:25;;;;;;;9.13;8.23;;;;;;;-143.84;100.00;45022.41;5109495;28;20821;-57
2023/08/05 00:02:52;;;;;;;11.80;8.93;;;;;;;-143.84;100.00;45043.34;5109474;28;20559;-56
2023/08/05 00:05:19;;;;;;;10.10;8.03;;;;;;;-143.84;100.00;45028.13;5109274;28;20514;-56
2023/08/05 00:07:50;;;;;;;9.00;8.03;;;;;;;-143.84;100.00;45052.88;5109260;28;20492;-56
2023/08/05 00:10:18;;;;;;;9.20;8.40;;;;;;;-143.84;100.00;45030.03;5109467;28;20458;-56
2023/08/05 00:12:45;;;;;;;10.63;8.37;;;;;;;-143.84;100.00;45047.16;5109393;28;20440;-57
2023/08/05 00:15:12;;;;;;;11.57;8.10;;;;;;;-143.84;100.00;45028.13;5109148;28;20470;-56
2023/08/05 00:17:39;;;;;;;8.63;7.73;;;;;;;-143.84;100.00;45062.41;5109235;28;20482;-57
2023/08/05 00:20:09;;;;;;;13.17;9.50;;;;;;;-143.84;100.00;45066.22;5109119;28;20618;-56
2023/08/05 00:22:36;;;;;;;12.90;9.80;;;;;;;-143.84;100.00;45043.34;5109425;28;20443;-56
2023/08/05 00:25:05;;;;;;;10.90;9.40;;;;;;;-143.84;100.00;45020.50;5109352;28;20434;-56
2023/08/05 00:27:32;;;;;;;14.33;8.80;;;;;;;-143.84;100.00;45054.78;5109092;28;20449;-56
2023/08/05 00:29:59;;;;;;;14.40;10.10;;;;;;;-143.84;100.00;45037.66;5109149;28;20431;-56
2023/08/05 00:32:28;;;;;;;13.80;9.37;;;;;;;-143.84;100.00;45028.13;5109134;28;20508;-56
2023/08/05 00:34:55;;;;;;;14.37;8.70;;;;;;;-143.84;100.00;45054.78;5109214;28;20443;-56
2023/08/05 00:37:22;;;;;;;11.60;8.97;;;;;;;-143.84;100.00;45041.44;5109058;28;20443;-56
2023/08/05 00:39:49;;;;;;;17.40;8.37;;;;;;;-143.84;100.00;45010.97;5111780;28;20434;-56
2023/08/05 00:42:19;;;;;;;11.80;10.33;;;;;;;-143.84;100.00;45031.94;5113165;28;21021;-56
2023/08/05 00:44:46;;;;;;;24.33;9.83;;;;;;;-143.84;100.00;45041.44;5113023;28;20932;-56
2023/08/05 00:47:16;;;;;;;16.60;8.13;;;;;;;-143.84;100.00;45043.34;5113374;28;20540;-56
2023/08/05 00:49:44;;;;;;;17.07;8.30;;;;;;;-143.84;100.00;45020.50;5113092;28;20499;-56
2023/08/05 00:52:11;;;;;;;20.63;9.00;;;;;;;-143.84;100.00;45045.25;5113161;28;20944;-56
2023/08/05 00:54:38;;;;;;;14.00;8.77;;;;;;;-143.84;100.00;45047.16;5113169;28;20496;-56
2023/08/05 00:57:06;;;;;;;11.07;7.83;;;;;;;-143.84;100.00;45026.22;5112976;28;20435;-56
2023/08/05 00:59:35;;;;;;;17.07;8.00;;;;;;;-143.84;100.00;45033.84;5112557;28;20540;-56
2023/08/05 01:02:02;;;;;;;16.93;9.83;;;;;;;-143.84;100.00;45033.84;5113132;28;20435;-56
2023/08/05 01:04:29;;;;;;;11.27;8.87;;;;;;;-143.84;100.00;45037.66;5112662;28;20456;-56
2023/08/05 01:06:58;;;;;;;25.37;9.30;;;;;;;-143.84;100.00;45052.88;5112900;28;20434;-56
2023/08/05 01:09:25;;;;;;;21.90;8.60;;;;;;;-143.84;100.00;45026.22;5112772;28;20960;-56
2023/08/05 01:11:53;;;;;;;16.50;10.43;;;;;;;-143.84;100.00;45052.88;5112916;28;20499;-56
2023/08/05 01:14:20;;;;;;;16.13;9.23;;;;;;;-143.84;100.00;45033.84;5112511;28;20439;-56
2023/08/05 01:16:48;;;;;;;14.17;9.20;;;;;;;-143.84;100.00;45018.59;5112793;28;20435;-56
2023/08/05 01:19:20;;;;;;;14.90;10.10;;;;;;;-143.84;100.00;45037.66;5112672;28;20539;-56
2023/08/05 01:21:57;;;;;;;13.23;9.83;;;;;;;-143.84;100.00;44988.13;5112551;28;20463;-56
2023/08/05 01:24:33;;;;;;;13.33;8.77;;;;;;;-143.84;100.00;45030.03;5112742;28;20533;-56
2023/08/05 01:27:03;;;;;;;15.40;8.77;;;;;;;-143.84;100.00;44986.22;5112313;28;20438;-56
2023/08/05 01:29:31;;;;;;;11.87;8.77;;;;;;;-143.84;100.00;45010.97;5112497;28;20815;-56
2023/08/05 01:31:58;;;;;;;9.53;8.27;;;;;;;-143.84;100.00;45022.41;5112282;28;20502;-56
2023/08/05 01:34:26;;;;;;;13.07;9.90;;;;;;;-143.84;100.00;45047.16;5112376;28;20438;-56
2023/08/05 01:36:53;;;;;;;12.90;9.47;;;;;;;-143.84;100.00;45018.59;5112614;28;20434;-56
2023/08/05 01:39:20;;;;;;;13.27;8.97;;;;;;;-143.84;100.00;44999.56;5111848;28;20471;-56
2023/08/05 01:41:47;;;;;;;13.50;8.70;;;;;;;-143.84;100.00;45012.88;5112266;28;20873;-57
2023/08/05 01:44:16;;;;;;;16.10;8.60;;;;;;;-143.84;100.00;45022.41;5112360;28;20443;-61
2023/08/05 01:46:43;;;;;;;11.90;8.20;;;;;;;-143.84;100.00;45033.84;5112309;28;20507;-61
2023/08/05 01:49:10;;;;;;;14.27;8.30;;;;;;;-143.84;100.00;45022.41;5111907;28;20435;-56
2023/08/05 01:51:37;;;;;;;16.77;8.90;;;;;;;-143.84;100.00;45028.13;5111036;28;20496;-56
2023/08/05 01:54:04;;;;;;;13.00;8.17;;;;;;;-143.84;100.00;44988.13;5111591;28;20503;-56
2023/08/05 01:56:31;;;;;;;13.97;9.17;;;;;;;-143.84;100.00;45010.97;5111665;28;20496;-56
2023/08/05 01:58:58;;;;;;;25.67;8.60;;;;;;;-143.84;100.00;45026.22;5111645;28;21038;-56
2023/08/05 02:04:21;;;;;;;13.53;7.30;;;;;;;-143.84;100.00;45026.22;5107037;27;20542;-60
2023/08/05 02:06:49;;;;;;;17.30;8.20;;;;;;;-143.84;100.00;45010.97;5107203;28;20459;-60
2023/08/05 02:09:16;;;;;;;15.93;8.30;;;;;;;-143.84;100.00;45010.97;5107180;28;20443;-60
2023/08/05 02:11:43;;;;;;;23.97;8.20;;;;;;;-143.84;100.00;44991.94;5107378;28;20431;-60
2023/08/05 02:14:10;;;;;;;11.90;7.53;;;;;;;-143.84;100.00;45031.94;5107041;28;20830;-60
2023/08/05 02:16:37;;;;;;;10.77;7.70;;;;;;;-143.84;100.00;44997.66;5106987;28;20489;-60
2023/08/05 02:19:04;;;;;;;19.20;7.93;;;;;;;-143.84;100.00;45026.22;5107208;28;20488;-60
2023/08/05 02:21:33;;;;;;;13.27;8.90;;;;;;;-143.84;100.00;45007.19;5107124;28;20484;-60
2023/08/05 02:24:00;;;;;;;12.20;8.60;;;;;;;-143.84;100.00;45026.22;5106565;28;20483;-60
2023/08/05 02:26:27;;;;;;;14.90;8.53;;;;;;;-143.84;100.00;45016.69;5106579;28;20461;-60
2023/08/05 02:28:54;;;;;;;9.93;8.17;;;;;;;-143.84;100.00;44991.94;5106602;28;20435;-60
2023/08/05 02:31:21;;;;;;;19.70;8.97;;;;;;;-143.84;100.00;44999.56;5107023;28;20442;-60
2023/08/05 02:33:48;;;;;;;14.63;8.67;;;;;;;-143.84;100.00;45026.22;5106578;28;20439;-60
2023/08/05 02:36:15;;;;;;;25.40;9.07;;;;;;;-143.84;100.00;45020.50;5106957;28;20443;-60
2023/08/05 02:38:44;;;;;;;13.10;9.20;;;;;;;-143.84;100.00;45010.97;5106436;28;21002;-60
2023/08/05 02:41:11;;;;;;;16.00;8.27;;;;;;;-143.84;100.00;45005.28;5106431;28;20878;-60
2023/08/05 02:43:38;;;;;;;16.13;8.77;;;;;;;-143.84;100.00;45033.84;5106789;28;20508;-60
2023/08/05 02:46:05;;;;;;;14.03;8.90;;;;;;;-143.84;100.00;45020.50;5106525;28;20503;-60
2023/08/05 02:48:32;;;;;;;19.97;8.00;;;;;;;-143.84;100.00;45030.03;5106449;28;20439;-60
2023/08/05 02:50:59;;;;;;;11.93;8.30;;;;;;;-143.84;100.00;45026.22;5106656;28;20443;-60
2023/08/05 02:53:27;;;;;;;11.33;9.00;;;;;;;-143.84;100.00;45001.47;5106382;28;20496;-60
2023/08/05 02:55:56;;;;;;;11.93;8.23;;;;;;;-143.84;100.00;45012.88;5105901;28;20447;-60
2023/08/05 02:58:23;;;;;;;16.13;7.83;;;;;;;-143.84;100.00;44997.66;5106168;28;20439;-60
2023/08/05 03:00:50;;;;;;;15.43;7.57;;;;;;;-143.84;100.00;45028.13;5106156;28;20646;-60
2023/08/05 03:03:17;;;;;;;15.73;9.03;;;;;;;-143.84;100.00;45026.22;5105565;28;20495;-60
2023/08/05 03:05:44;;;;;;;13.90;7.10;;;;;;;-143.84;100.00;45037.66;5105699;28;20423;-60
2023/08/05 03:08:12;;;;;;;18.93;8.67;;;;;;;-143.84;100.00;45014.78;5105960;28;20474;-60
2023/08/05 03:10:40;;;;;;;14.60;7.63;;;;;;;-143.84;100.00;45018.59;5105861;28;20465;-57
2023/08/05 03:13:08;;;;;;;10.83;7.63;;;;;;;-143.84;100.00;45022.41;5105728;28;20915;-56
2023/08/05 03:15:35;;;;;;;12.27;8.40;;;;;;;-143.84;100.00;45033.84;5092105;28;20497;-57
2023/08/05 03:18:03;;;;;;;15.47;8.67;;;;;;;-143.84;100.00;45033.84;5091926;28;20856;-57
2023/08/05 03:20:34;;;;;;;17.90;8.33;;;;;;;-143.84;100.00;45018.59;5091834;28;20816;-57
2023/08/05 03:23:01;;;;;;;11.30;8.47;;;;;;;-143.84;100.00;45033.84;5091600;28;20475;-57
2023/08/05 03:25:28;;;;;;;12.60;7.97;;;;;;;-143.84;100.00;45041.44;5091745;28;20447;-57
2023/08/05 03:27:55;;;;;;;14.53;8.10;;;;;;;-143.84;100.00;45052.88;5091893;28;20436;-57
2023/08/05 03:30:24;;;;;;;11.43;6.97;;;;;;;-143.84;100.00;45030.03;5091668;28;20439;-57
2023/08/05 03:32:51;;;;;;;27.17;8.07;;;;;;;-143.84;100.00;45007.19;5091442;28;20452;-57
2023/08/05 03:35:18;;;;;;;16.30;8.37;;;;;;;-143.84;100.00;45020.50;5091562;28;20492;-57
2023/08/05 03:37:46;;;;;;;15.30;8.13;;;;;;;-143.84;100.00;45039.53;5091315;28;20444;-57
2023/08/05 03:40:13;;;;;;;11.97;8.40;;;;;;;-143.84;100.00;45014.78;5091167;28;20556;-57
2023/08/05 03:42:41;;;;;;;11.27;8.00;;;;;;;-143.84;100.00;45035.75;5091247;28;20483;-57
2023/08/05 03:45:09;;;;;;;13.47;7.77;;;;;;;-143.84;100.00;45033.84;5091114;28;20506;-57
2023/08/05 03:47:37;;;;;;;13.37;9.00;;;;;;;-143.84;100.00;45022.41;5091215;28;20447;-57
2023/08/05 03:50:08;;;;;;;9.50;7.63;;;;;;;-143.84;100.00;45039.53;5090945;28;20497;-57
2023/08/05 03:52:35;;;;;;;12.53;7.70;;;;;;;-143.84;100.00;45022.41;5091099;28;20440;-57
2023/08/05 03:55:03;;;;;;;13.03;6.97;;;;;;;-143.84;100.00;45026.22;5091547;28;20436;-57
2023/08/05 03:57:30;;;;;;;19.23;7.43;;;;;;;-143.84;100.00;45050.97;5091090;28;20447;-57
2023/08/05 03:59:58;;;;;;;16.57;6.80;;;;;;;-143.84;100.00;45039.53;5091154;28;20440;-57
2023/08/05 04:02:25;;;;;;;8.67;4.97;;;;;;;-143.84;96.81;45056.69;5090546;28;20484;-57
2023/08/05 04:04:53;;;;;;;10.93;5.40;;;;;;;-143.84;92.73;45020.50;5091009;28;21143;-57
2023/08/05 04:07:22;;;;;;;11.23;5.40;;;;;;;-143.84;91.97;45028.13;5090660;28;20851;-57
2023/08/05 04:09:51;;;;;;;12.33;4.67;;;;;;;-143.84;90.49;45020.50;5090462;28;20481;-57
2023/08/05 04:12:18;;;;;;;6.13;4.07;;;;;;;-143.84;88.44;45018.59;5090772;28;20440;-57
2023/08/05 04:14:45;;;;;;;5.40;4.90;;;;;;;-143.84;84.90;45007.19;5090673;28;20933;-57
2023/08/05 04:17:14;;;;;;;8.97;5.00;;;;;;;-143.84;85.40;45033.84;5090676;28;20501;-57
2023/08/05 04:19:42;;;;;;;7.60;4.23;;;;;;;-143.84;86.24;45016.69;5090604;28;20432;-57
2023/08/05 04:22:12;;;;;;;9.23;4.30;;;;;;;-143.84;87.10;45026.22;5090484;28;20962;-57
2023/08/05 04:24:41;;;;;;;6.83;4.03;;;;;;;-143.84;85.87;45022.41;5090610;28;20486;-57
2023/08/05 04:27:08;;;;;;;9.30;4.50;;;;;;;-143.84;84.09;45024.31;5089500;28;20949;-57
2023/08/05 04:29:35;;;;;;;5.97;3.47;;;;;;;-143.84;82.90;44978.63;5090353;28;20439;-57
2023/08/05 04:32:03;;;;;;;6.60;3.83;;;;;;;-143.84;81.44;44991.94;5090601;28;20999;-56
2023/08/05 04:34:35;;;;;;;10.40;3.60;;;;;;;-143.84;80.08;45028.13;5090395;28;20435;-56
2023/08/05 04:37:17;;;;;;;4.97;3.60;;;;;;;-143.84;79.14;44978.63;5090405;28;20519;-57
2023/08/05 04:39:45;;;;;;;17.40;3.60;;;;;;;-143.84;76.41;44948.16;5090162;28;20815;-57
2023/08/05 04:42:12;;;;;;;8.47;3.70;;;;;;;-143.84;76.59;44969.09;5090061;28;20937;-56
2023/08/05 04:44:41;;;;;;;8.40;3.43;;;;;;;-143.84;76.63;44974.81;5090288;28;20947;-56
2023/08/05 04:47:08;;;;;;;12.30;3.70;;;;;;;-143.84;76.45;44976.72;5090186;28;20478;-56
2023/08/05 04:49:36;;;;;;;3.90;3.50;;;;;;;-143.84;76.50;44972.91;5090215;28;20432;-56
2023/08/05 04:52:06;;;;;;;4.27;3.47;;;;;;;-143.84;76.67;45003.38;5089952;28;20440;-56
2023/08/05 04:54:37;;;;;;;6.60;3.57;;;;;;;-143.84;76.46;45001.47;5090016;28;20440;-56
2023/08/05 04:57:05;;;;;;;8.80;3.90;;;;;;;-143.84;75.80;44997.66;5089829;28;20990;-56
2023/08/05 04:59:33;;;;;;;6.53;3.60;;;;;;;-143.84;75.48;44999.56;5089691;28;20447;-56
2023/08/05 05:02:00;;;;;;;7.43;3.80;;;;;;;-143.84;74.33;44980.53;5089477;28;20440;-56
2023/08/05 05:04:27;;;;;;;4.80;3.10;;;;;;;-143.84;74.23;44982.41;5089722;28;20487;-55
2023/08/05 05:06:54;;;;;;;6.73;3.30;;;;;;;-143.84;74.13;45007.19;5089822;28;20444;-55
2023/08/05 05:09:21;;;;;;;12.17;3.73;;;;;;;-143.84;73.93;44953.88;5089793;28;20436;-55
2023/08/05 05:11:50;;;;;;;9.37;3.67;;;;;;;-143.84;73.08;44950.06;5089557;28;20987;-55
2023/08/05 05:14:17;;;;;;;8.63;3.80;;;;;;;-143.84;72.85;44961.47;5089550;28;20440;-55
2023/08/05 05:16:44;;;;;;;10.23;3.83;;;;;;;-143.84;71.33;44944.34;5089498;28;20436;-56
2023/08/05 05:19:11;;;;;;;9.47;3.40;;;;;;;-143.84;70.71;44972.91;5089449;28;20941;-56
2023/08/05 05:21:38;;;;;;;5.57;2.90;;;;;;;-143.84;68.52;44946.25;5089666;28;20991;-55
2023/08/05 05:24:06;;;;;;;4.03;3.13;;;;;;;-143.84;66.45;44965.28;5089115;28;20472;-56
2023/08/05 05:26:33;;;;;;;6.37;3.03;;;;;;;-143.84;66.69;44961.47;5089311;28;20974;-55
2023/08/05 05:29:01;;;;;;;4.17;2.83;;;;;;;-143.84;65.93;44965.28;5089430;28;21006;-56
2023/08/05 05:31:28;;;;;;;8.97;3.17;;;;;;;-143.84;65.82;44948.16;5089332;28;20440;-51
2023/08/05 05:33:55;;;;;;;8.10;3.33;;;;;;;-143.84;65.59;44959.56;5085516;28;20460;-51
2023/08/05 05:36:22;;;;;;;5.70;3.73;;;;;;;-143.84;67.70;44948.16;5089302;28;20440;-58
2023/08/05 05:38:50;;;;;;;7.63;3.10;;;;;;;-143.84;69.26;44961.47;5089298;28;20493;-55
2023/08/05 05:41:17;;;;;;;9.50;3.70;;;;;;;-143.84;69.57;44972.91;5089288;28;20898;-56
2023/08/05 05:43:44;;;;;;;9.50;2.97;;;;;;;-143.84;69.85;44974.81;5088878;28;20472;-56
2023/08/05 05:46:14;;;;;;;7.70;3.40;;;;;;;-143.84;69.94;44965.28;5088538;28;20978;-56
2023/08/05 05:48:42;;;;;;;7.60;3.50;;;;;;;-143.84;70.54;44969.09;5089138;28;20926;-56
2023/08/05 05:51:09;;;;;;;10.57;4.00;;;;;;;-143.84;71.31;44948.16;5088910;28;20442;-55
2023/08/05 05:53:36;;;;;;;6.17;3.40;;;;;;;-143.84;71.55;44957.66;5088962;28;20444;-55
2023/08/05 05:56:04;;;;;;;10.50;4.00;;;;;;;-143.84;71.74;44959.56;5089254;28;20440;-58
2023/08/05 05:58:34;;;;;;;8.83;3.10;;;;;;;-143.84;70.22;44923.41;5090260;28;20440;-58
2023/08/05 06:01:02;;;;;;;3.80;3.17;;;;;;;-143.84;66.98;44961.47;5089536;28;20452;-58
2023/08/05 06:03:33;;;;;;;7.00;2.93;;;;;;;-143.84;67.27;44911.97;5089615;28;20483;-58
2023/08/05 06:06:00;;;;;;;11.17;3.83;;;;;;;-143.84;67.87;44955.75;5095627;28;20484;-51
2023/08/05 06:08:27;;;;;;;10.23;3.60;;;;;;;-143.84;67.60;44925.31;5109461;28;21014;-50
2023/08/05 06:10:55;;;;;;;14.00;3.17;;;;;;;-143.84;67.41;44955.75;5109576;28;20497;-52
2023/08/05 06:13:22;;;;;;;7.30;3.40;;;;;;;-143.84;68.01;44955.75;5109483;28;20450;-52
2023/08/05 06:15:49;;;;;;;5.60;3.20;;;;;;;-143.84;68.78;44946.25;5109378;28;20492;-52
2023/08/05 06:18:16;;;;;;;6.87;4.00;;;;;;;-143.84;69.12;44988.13;5109146;28;20439;-52
2023/08/05 06:20:47;;;;;;;7.63;4.00;;;;;;;-143.84;68.21;44972.91;5107834;28;20932;-51
2023/08/05 06:23:14;;;;;;;5.70;3.50;;;;;;;-143.84;69.97;44961.47;5107581;28;20497;-51
2023/08/05 06:25:41;;;;;;;7.17;3.67;;;;;;;-143.84;69.83;44961.47;5107997;28;20431;-52
2023/08/05 06:28:08;;;;;;;8.70;3.70;;;;;;;-143.84;70.30;45003.38;5107969;28;20439;-51
2023/08/05 06:30:36;;;;;;;6.63;3.80;;;;;;;-143.84;71.77;44950.06;5108019;28;20435;-50
2023/08/05 06:33:03;;;;;;;7.80;3.77;;;;;;;-143.84;73.60;44986.22;5108605;28;20872;-52
2023/08/05 06:35:30;;;;;;;9.43;4.07;;;;;;;-143.84;74.67;44990.03;5108297;28;20434;-52
2023/08/05 06:37:58;;;;;;;4.83;3.13;;;;;;;-143.84;74.36;44995.75;5108195;28;20508;-55
2023/08/05 06:40:25;;;;;;;8.00;3.03;;;;;;;-143.84;73.30;45001.47;5108064;28;20519;-56
2023/08/05 06:42:52;;;;;;;5.23;3.70;;;;;;;-143.84;73.63;44980.53;5108046;28;20932;-56
2023/08/05 06:45:19;;;;;;;14.37;4.83;;;;;;;-143.84;73.47;44999.56;5108549;28;20474;-56
2023/08/05 06:47:46;;;;;;;5.40;3.30;;;;;;;-143.84;74.19;44986.22;5108920;28;20496;-56
2023/08/05 06:50:14;;;;;;;11.20;4.03;;;;;;;-143.84;73.73;44972.91;5111244;28;20508;-56
2023/08/05 06:52:41;;;;;;;5.13;3.27;;;;;;;-143.84;73.33;44959.56;5112637;27;20446;-56
2023/08/05 06:55:10;;;;;;;6.43;3.93;;;;;;;-143.84;72.76;44955.75;5112638;28;20442;-56
2023/08/05 06:57:37;;;;;;;4.00;3.53;;;;;;;-143.84;72.98;44984.31;5112470;28;20443;-56
2023/08/05 07:00:05;;;;;;;8.00;3.07;;;;;;;-143.84;71.22;44965.28;5112452;28;20435;-56
2023/08/05 07:02:32;;;;;;;11.90;3.70;;;;;;;-143.84;70.20;44934.81;5112501;28;20835;-56
2023/08/05 07:04:59;;;;;;;10.63;4.20;;;;;;;-143.84;70.84;44965.28;5112558;28;20984;-56
2023/08/05 07:07:26;;;;;;;14.73;4.33;;;;;;;-143.84;70.43;44978.63;5112376;28;20967;-56
2023/08/05 07:10:00;;;;;;;11.17;3.83;;;;;;;-143.84;72.26;44971.00;5112422;28;20804;-56
2023/08/05 07:12:29;;;;;;;7.83;3.70;;;;;;;-143.84;70.13;44969.09;5112333;27;20435;-56
2023/08/05 07:14:56;;;;;;;8.17;4.17;;;;;;;-143.84;68.41;44963.38;5112539;28;20513;-56
2023/08/05 07:17:25;;;;;;;4.87;3.20;;;;;;;-143.84;67.22;44967.19;5112217;28;20442;-56
2023/08/05 07:19:52;;;;;;;4.53;3.10;;;;;;;-143.84;67.42;44961.47;5112483;28;20443;-56
2023/08/05 07:22:19;;;;;;;6.77;3.97;;;;;;;-143.84;67.52;44946.25;5112191;27;20431;-56
2023/08/05 07:24:46;;;;;;;7.57;3.37;;;;;;;-143.84;65.41;44946.25;5112101;28;20478;-56
2023/08/05 07:27:13;;;;;;;10.80;3.60;;;;;;;-143.84;66.53;44951.97;5112135;28;20439;-56
2023/08/05 07:29:45;;;;;;;15.10;3.63;;;;;;;-143.84;67.31;44972.91;5111800;28;20447;-56
2023/08/05 07:32:12;;;;;;;7.73;3.20;;;;;;;-143.84;65.41;44934.81;5112002;28;20443;-56
2023/08/05 07:34:39;;;;;;;5.30;2.67;;;;;;;-143.84;66.81;44944.34;5111989;28;20443;-56
2023/08/05 07:37:06;;;;;;;7.50;3.30;;;;;;;-143.84;67.60;44959.56;5111792;28;20449;-56
2023/08/05 07:39:34;;;;;;;7.43;3.50;;;;;;;-143.84;67.27;44950.06;5112021;28;20932;-56
2023/08/05 07:42:02;;;;;;;9.20;3.23;;;;;;;-143.84;66.61;44934.81;5111771;28;20435;-56
2023/08/05 07:44:31;;;;;;;11.23;4.37;;;;;;;-143.84;66.84;44938.63;5111707;28;20478;-56
2023/08/05 07:46:59;;;;;;;8.27;4.17;;;;;;;-143.84;67.13;44965.28;5111681;27;20473;-56
2023/08/05 07:49:27;;;;;;;6.70;3.63;;;;;;;-143.84;68.05;44938.63;5111639;28;20807;-56
2023/08/05 07:51:55;;;;;;;9.40;3.53;;;;;;;-143.84;66.98;44946.25;5111572;28;20939;-56
2023/08/05 07:54:23;;;;;;;6.90;3.57;;;;;;;-143.84;65.81;44953.88;5111701;28;20511;-56
2023/08/05 07:56:52;;;;;;;9.50;3.93;;;;;;;-143.84;62.84;44919.59;5111412;28;20449;-56
2023/08/05 07:59:20;;;;;;;13.90;2.80;;;;;;;-143.84;61.40;44940.53;5111620;28;20553;-56
2023/08/05 08:01:47;;;;;;;10.27;3.80;;;;;;;-143.84;61.46;44931.00;5111363;28;20447;-56
2023/08/05 08:04:15;;;;;;;8.67;3.50;;;;;;;-143.84;58.94;44913.88;5111343;28;20555;-56
2023/08/05 08:06:45;;;;;;;8.50;3.70;;;;;;;-143.84;58.01;44944.34;5111401;28;20530;-56
2023/08/05 08:09:13;;;;;;;4.07;2.90;;;;;;;-143.84;58.32;44950.06;5111574;28;20442;-56
2023/08/05 08:11:40;;;;;;;4.13;3.00;;;;;;;-143.84;59.69;44953.88;5111067;28;20449;-56
2023/08/05 08:14:07;;;;;;;5.70;3.00;;;;;;;-143.84;59.21;44942.44;5110962;28;20439;-56
2023/08/05 08:16:34;;;;;;;6.57;3.20;;;;;;;-143.84;59.17;44913.88;5110944;28;20437;-56
2023/08/05 08:19:02;;;;;;;9.40;3.37;;;;;;;-143.84;58.32;44911.97;5110888;28;20451;-56
2023/08/05 08:21:31;;;;;;;6.57;2.97;;;;;;;-143.84;58.30;44896.75;5111015;28;20442;-56
2023/08/05 08:23:58;;;;;;;10.17;2.90;;;;;;;-143.84;57.02;44906.25;5110952;28;20855;-56
2023/08/05 08:26:25;;;;;;;11.60;4.10;;;;;;;-143.84;57.62;44925.31;5111207;28;20856;-56
2023/08/05 08:28:52;;;;;;;11.10;2.70;;;;;;;-143.84;58.91;44910.06;5110678;28;20431;-56
2023/08/05 08:31:19;;;;;;;9.60;3.93;;;;;;;-143.84;56.00;44902.44;5110869;28;20443;-56
2023/08/05 08:33:46;;;;;;;13.63;3.67;;;;;;;-143.84;55.58;44927.19;5110730;28;20512;-56
2023/08/05 08:36:14;;;;;;;4.77;3.10;;;;;;;-143.84;55.80;44913.88;5110707;28;20841;-56
2023/08/05 08:38:42;;;;;;;8.97;3.33;;;;;;;-143.84;55.82;44911.97;5110289;28;20438;-56
2023/08/05 08:41:09;;;;;;;6.30;3.00;;;;;;;-143.84;57.08;44889.13;5110444;28;20442;-56
2023/08/05 08:43:37;;;;;;;8.17;3.20;;;;;;;-143.84;53.44;44881.50;5110242;28;20496;-56
2023/08/05 08:46:07;;;;;;;6.20;3.30;;;;;;;-143.84;53.67;44902.44;5110758;28;20888;-56
2023/08/05 08:48:36;;;;;;;4.30;2.63;;;;;;;-143.84;53.14;44915.78;5110486;28;21173;-56
2023/08/05 08:51:04;;;;;;;6.70;3.20;;;;;;;-143.84;54.36;44908.16;5110269;28;20449;-56
2023/08/05 08:53:33;;;;;;;6.40;3.33;;;;;;;-143.84;53.92;44923.41;5110298;28;20435;-56
2023/08/05 08:56:02;;;;;;;5.80;3.43;;;;;;;-143.84;53.55;44902.44;5110474;28;20522;-56
2023/08/05 08:58:29;;;;;;;5.93;2.97;;;;;;;-143.84;53.01;44910.06;5110458;28;20439;-56
2023/08/05 09:00:59;;;;;;;4.40;2.80;;;;;;;-143.84;54.70;44919.59;5110506;28;20989;-56
2023/08/05 09:03:28;;;;;;;3.50;3.13;;;;;;;-143.84;54.41;44936.72;5110014;27;20540;-56
2023/08/05 09:05:56;;;;;;;10.20;3.40;;;;;;;-143.84;54.48;44934.81;5110006;28;20489;-56
2023/08/05 09:08:24;;;;;;;6.70;3.47;;;;;;;-143.84;53.03;44911.97;5110225;28;20512;-56
2023/08/05 09:10:51;;;;;;;6.20;2.73;;;;;;;-143.84;51.84;44906.25;5109816;28;20504;-56
2023/08/05 09:13:19;;;;;;;5.93;2.93;;;;;;;-143.84;53.60;44915.78;5109469;28;20932;-56
2023/08/05 09:15:47;;;;;;;9.60;3.30;;;;;;;-143.84;52.87;44904.34;5110127;28;20451;-56
2023/08/05 09:18:15;;;;;;;4.50;3.23;;;;;;;-143.84;52.69;44923.41;5109917;28;20450;-56
2023/08/05 09:20:42;;;;;;;2.73;2.53;;;;;;;-143.84;54.35;44917.69;5109801;28;20963;-56
2023/08/05 09:23:11;;;;;;;6.40;3.83;;;;;;;-143.84;51.90;44898.66;5109814;28;20473;-56
2023/08/05 09:25:41;;;;;;;4.00;3.10;;;;;;;-143.84;51.82;44894.84;5109506;28;20475;-56
2023/08/05 09:28:08;;;;;;;5.30;3.10;;;;;;;-143.84;53.56;44948.16;5109662;28;20868;-56
2023/08/05 09:30:37;;;;;;;5.50;3.00;;;;;;;-143.84;51.18;44898.66;5109909;28;20443;-56
2023/08/05 09:33:04;;;;;;;5.00;2.77;;;;;;;-143.84;49.78;44875.78;5110098;28;20877;-56
2023/08/05 09:35:31;;;;;;;4.47;3.40;;;;;;;-143.84;49.30;44919.59;5109598;27;20476;-56
2023/08/05 09:38:00;;;;;;;17.77;3.30;;;;;;;-143.84;50.94;44898.66;5109738;28;20435;-56
2023/08/05 09:40:31;;;;;;;11.20;3.40;;;;;;;-143.84;48.66;44877.69;5109577;28;20439;-56
2023/08/05 09:42:59;;;;;;;5.77;2.43;;;;;;;-143.84;48.20;44891.03;5109530;28;20435;-56
2023/08/05 09:45:28;;;;;;;13.90;3.27;;;;;;;-143.84;46.58;44881.50;5109302;28;20475;-56
2023/08/05 09:48:03;;;;;;;2.83;2.37;;;;;;;-143.84;48.48;44913.88;5109741;28;20431;-56
2023/08/05 09:50:32;;;;;;;5.80;2.93;;;;;;;-143.84;48.13;44929.09;5109579;28;20446;-56
2023/08/05 09:53:01;;;;;;;3.50;2.60;;;;;;;-143.84;47.13;44921.50;5109502;28;21003;-56
2023/08/05 09:55:29;;;;;;;6.70;3.20;;;;;;;-143.84;49.24;44927.19;5109198;28;20439;-56
2023/08/05 09:57:57;;;;;;;6.47;2.80;;;;;;;-143.84;47.00;44921.50;5109172;28;20430;-56
2023/08/05 10:00:25;;;;;;;3.70;2.40;;;;;;;-143.84;46.48;44942.44;5109370;28;20975;-56
2023/08/05 10:02:53;;;;;;;3.37;3.00;;;;;;;-143.84;46.97;44919.59;5109133;28;20482;-56
2023/08/05 10:05:25;;;;;;;6.13;2.73;;;;;;;-143.84;48.11;44927.19;5109805;28;21355;-56
2023/08/05 10:07:54;;;;;;;9.90;3.03;;;;;;;-143.84;44.54;44913.88;5109714;28;20478;-56
2023/08/05 10:10:21;;;;;;;5.97;2.37;;;;;;;-143.84;46.97;44927.19;5109260;28;20442;-56
2023/08/05 10:12:53;;;;;;;3.83;2.70;;;;;;;-143.84;47.31;44923.41;5109205;28;20439;-56
2023/08/05 10:15:26;;;;;;;5.63;2.70;;;;;;;-143.84;47.38;44934.81;5109158;28;20500;-56
2023/08/05 10:17:54;;;;;;;8.83;2.80;;;;;;;-143.84;47.15;44951.97;5109210;28;20443;-56
2023/08/05 10:20:22;;;;;;;3.83;2.47;;;;;;;-143.84;46.32;44950.06;5109130;28;20492;-56
2023/08/05 10:23:03;;;;;;;7.97;3.20;;;;;;;-143.84;49.33;44900.53;5109595;28;20455;-55
2023/08/05 10:25:42;;;;;;;5.37;2.67;;;;;;;-143.84;47.54;44950.06;5111757;28;21085;-56
2023/08/05 10:28:10;;;;;;;9.80;3.20;;;;;;;-143.84;50.25;44932.91;5113558;28;20442;-56
2023/08/05 10:30:44;;;;;;;3.90;2.40;;;;;;;-143.84;49.43;44923.41;5113168;28;20439;-56
2023/08/05 10:33:11;;;;;;;6.43;3.57;;;;;;;-143.84;48.54;44934.81;5113290;28;20435;-56
2023/08/05 10:35:41;;;;;;;6.03;2.73;;;;;;;-143.84;47.24;44934.81;5113242;28;20447;-56
2023/08/05 10:38:14;;;;;;;3.43;2.60;;;;;;;-143.84;48.23;44948.16;5112909;28;20801;-56
2023/08/05 10:40:47;;;;;;;4.80;2.70;;;;;;;-143.84;47.88;44948.16;5113132;28;20575;-56
2023/08/05 10:43:27;;;;;;;7.43;2.70;;;;;;;-143.84;48.12;44940.53;5113252;28;20521;-56
2023/08/05 10:45:55;;;;;;;3.50;2.53;;;;;;;-143.84;49.37;44953.88;5112841;28;20481;-56
2023/08/05 10:48:29;;;;;;;10.47;3.00;;;;;;;-143.84;49.57;44944.34;5112822;28;20442;-56
2023/08/05 10:50:59;;;;;;;6.47;3.27;;;;;;;-143.84;48.80;44915.78;5112868;28;20517;-56
2023/08/05 10:53:26;;;;;;;10.90;3.47;;;;;;;-143.84;49.39;44906.25;5112885;28;20451;-56
2023/08/05 10:55:56;;;;;;;7.53;3.00;;;;;;;-143.84;49.02;44929.09;5112330;28;20423;-56
2023/08/05 10:58:24;;;;;;;7.40;2.50;;;;;;;-143.84;48.51;44917.69;5112488;28;20427;-55
2023/08/05 11:00:59;;;;;;;8.40;3.23;;;;;;;-143.84;50.56;44938.63;5112502;28;20439;-56
2023/08/05 11:03:32;;;;;;;13.63;4.00;;;;;;;-143.84;52.07;44931.00;5112471;28;20485;-56
2023/08/05 11:06:04;;;;;;;4.13;3.23;;;;;;;-143.84;50.56;44940.53;5112507;28;20555;-55
2023/08/05 11:08:33;;;;;;;4.97;2.97;;;;;;;-143.84;52.53;44942.44;5112323;28;20447;-56
2023/08/05 11:11:04;;;;;;;4.00;3.00;;;;;;;-143.84;51.00;44913.88;5112318;28;20443;-56
2023/08/05 11:13:36;;;;;;;5.10;3.13;;;;;;;-143.84;53.14;44963.38;5112595;28;20939;-56
2023/08/05 11:16:08;;;;;;;9.73;3.80;;;;;;;-143.84;54.66;44959.56;5112375;28;20464;-56
2023/08/05 11:18:35;;;;;;;5.80;2.80;;;;;;;-143.84;55.63;44959.56;5112272;28;20496;-56